sensor_id;sensor_type;location;lat;lon;timestamp;temperature;humidity
35027;DHT22;60696;51.426;6.934;2023-01-31T00:01:35;4.30;99.90
35027;DHT22;60696;51.426;6.934;2023-01-31T00:04:04;4.40;99.90
35027;DHT22;60696;51.426;6.934;2023-01-31T00:06:35;4.40;99.90
35027;DHT22;60696;51.426;6.934;2023-01-31T00:09:04;4.40;99.90
35027;DHT22;60696;51.426;6.934;2023-01-31T00:11:31;4.40;99.90
35027;DHT22;60696;51.426;6.934;2023-01-31T00:13:58;4.50;99.90
35027;DHT22;60696;51.426;6.934;2023-01-31T00:16:24;4.50;99.90
35027;DHT22;60696;51.426;6.934;2023-01-31T00:18:50;4.50;99.90
35027;DHT22;60696;51.426;6.934;2023-01-31T00:21:18;4.60;99.90
35027;DHT22;60696;51.426;6.934;2023-01-31T00:23:45;4.50;99.90
35027;DHT22;60696;51.426;6.934;2023-01-31T00:26:12;4.60;99.90
35027;DHT22;60696;51.426;6.934;2023-01-31T00:28:39;4.50;99.90
35027;DHT22;60696;51.426;6.934;2023-01-31T00:31:05;4.60;99.90
35027;DHT22;60696;51.426;6.934;2023-01-31T00:33:35;4.60;99.90
35027;DHT22;60696;51.426;6.934;2023-01-31T00:36:06;4.60;99.90
35027;DHT22;60696;51.426;6.934;2023-01-31T00:38:33;4.60;99.90
35027;DHT22;60696;51.426;6.934;2023-01-31T00:40:59;4.70;99.90
35027;DHT22;60696;51.426;6.934;2023-01-31T00:43:25;4.70;99.90
35027;DHT22;60696;51.426;6.934;2023-01-31T00:45:51;4.70;99.90
35027;DHT22;60696;51.426;6.934;2023-01-31T00:48:17;4.70;99.90
35027;DHT22;60696;51.426;6.934;2023-01-31T00:50:42;4.70;99.90
35027;DHT22;60696;51.426;6.934;2023-01-31T00:53:08;4.70;99.90
35027;DHT22;60696;51.426;6.934;2023-01-31T00:55:34;4.70;99.90
35027;DHT22;60696;51.426;6.934;2023-01-31T00:57:59;4.60;99.90
35027;DHT22;60696;51.426;6.934;2023-01-31T01:00:25;4.60;99.90
35027;DHT22;60696;51.426;6.934;2023-01-31T01:02:51;4.60;99.90
35027;DHT22;60696;51.426;6.934;2023-01-31T01:05:16;4.60;99.90
35027;DHT22;60696;51.426;6.934;2023-01-31T01:07:42;4.60;99.90
35027;DHT22;60696;51.426;6.934;2023-01-31T01:10:08;4.50;99.90
35027;DHT22;60696;51.426;6.934;2023-01-31T01:12:34;4.40;99.90
35027;DHT22;60696;51.426;6.934;2023-01-31T01:15:00;4.30;99.90
35027;DHT22;60696;51.426;6.934;2023-01-31T01:17:25;4.20;99.90
35027;DHT22;60696;51.426;6.934;2023-01-31T01:19:51;4.10;99.90
35027;DHT22;60696;51.426;6.934;2023-01-31T01:22:16;4.10;99.90
35027;DHT22;60696;51.426;6.934;2023-01-31T01:24:43;4.00;99.90
35027;DHT22;60696;51.426;6.934;2023-01-31T01:27:10;3.90;99.90
35027;DHT22;60696;51.426;6.934;2023-01-31T01:29:36;4.00;99.90
35027;DHT22;60696;51.426;6.934;2023-01-31T01:32:02;4.00;99.90
35027;DHT22;60696;51.426;6.934;2023-01-31T01:34:29;3.90;99.90
35027;DHT22;60696;51.426;6.934;2023-01-31T01:36:55;3.80;99.90
35027;DHT22;60696;51.426;6.934;2023-01-31T01:39:21;3.70;99.90
35027;DHT22;60696;51.426;6.934;2023-01-31T01:41:46;3.70;99.90
35027;DHT22;60696;51.426;6.934;2023-01-31T01:49:50;3.60;99.90
35027;DHT22;60696;51.426;6.934;2023-01-31T01:52:18;3.50;99.90
35027;DHT22;60696;51.426;6.934;2023-01-31T01:54:54;3.50;99.90
35027;DHT22;60696;51.426;6.934;2023-01-31T01:57:26;3.50;99.90
35027;DHT22;60696;51.426;6.934;2023-01-31T02:00:03;3.50;99.90
35027;DHT22;60696;51.426;6.934;2023-01-31T02:02:29;3.50;99.90
35027;DHT22;60696;51.426;6.934;2023-01-31T02:04:55;3.50;99.90
35027;DHT22;60696;51.426;6.934;2023-01-31T02:07:21;3.50;99.90
35027;DHT22;60696;51.426;6.934;2023-01-31T02:09:52;3.50;99.90
35027;DHT22;60696;51.426;6.934;2023-01-31T02:12:20;3.60;99.90
35027;DHT22;60696;51.426;6.934;2023-01-31T02:14:46;3.60;99.90
35027;DHT22;60696;51.426;6.934;2023-01-31T02:17:14;3.60;99.90
35027;DHT22;60696;51.426;6.934;2023-01-31T02:20:09;3.60;99.90
35027;DHT22;60696;51.426;6.934;2023-01-31T02:28:36;3.60;99.90
35027;DHT22;60696;51.426;6.934;2023-01-31T02:34:13;3.60;99.90
35027;DHT22;60696;51.426;6.934;2023-01-31T02:39:27;3.70;99.90
35027;DHT22;60696;51.426;6.934;2023-01-31T02:42:06;3.70;99.90
35027;DHT22;60696;51.426;6.934;2023-01-31T02:47:49;3.80;99.90
35027;DHT22;60696;51.426;6.934;2023-01-31T02:50:32;3.70;99.90
35027;DHT22;60696;51.426;6.934;2023-01-31T02:53:08;3.60;99.90
35027;DHT22;60696;51.426;6.934;2023-01-31T02:55:51;3.60;99.90
35027;DHT22;60696;51.426;6.934;2023-01-31T02:58:37;3.60;99.90
35027;DHT22;60696;51.426;6.934;2023-01-31T03:01:04;3.60;99.90
35027;DHT22;60696;51.426;6.934;2023-01-31T03:03:34;3.60;99.90
35027;DHT22;60696;51.426;6.934;2023-01-31T03:14:26;3.50;99.90
35027;DHT22;60696;51.426;6.934;2023-01-31T03:22:43;3.50;99.90
35027;DHT22;60696;51.426;6.934;2023-01-31T03:25:14;3.50;99.90
35027;DHT22;60696;51.426;6.934;2023-01-31T03:27:45;3.50;99.90
35027;DHT22;60696;51.426;6.934;2023-01-31T03:30:13;3.60;99.90
35027;DHT22;60696;51.426;6.934;2023-01-31T03:32:48;3.50;99.90
35027;DHT22;60696;51.426;6.934;2023-01-31T03:35:15;3.50;99.90
35027;DHT22;60696;51.426;6.934;2023-01-31T03:37:54;3.50;99.90
35027;DHT22;60696;51.426;6.934;2023-01-31T03:40:32;3.50;99.90
35027;DHT22;60696;51.426;6.934;2023-01-31T03:43:23;3.50;99.90
35027;DHT22;60696;51.426;6.934;2023-01-31T03:46:01;3.50;99.90
35027;DHT22;60696;51.426;6.934;2023-01-31T03:48:34;3.60;99.90
35027;DHT22;60696;51.426;6.934;2023-01-31T03:51:05;3.60;99.90
35027;DHT22;60696;51.426;6.934;2023-01-31T03:53:41;3.60;99.90
35027;DHT22;60696;51.426;6.934;2023-01-31T03:56:36;3.50;99.90
35027;DHT22;60696;51.426;6.934;2023-01-31T03:59:11;3.50;99.90
35027;DHT22;60696;51.426;6.934;2023-01-31T04:01:41;3.50;99.90
35027;DHT22;60696;51.426;6.934;2023-01-31T04:04:10;3.40;99.90
35027;DHT22;60696;51.426;6.934;2023-01-31T04:06:38;3.30;99.90
35027;DHT22;60696;51.426;6.934;2023-01-31T04:09:04;3.30;99.90
35027;DHT22;60696;51.426;6.934;2023-01-31T04:11:36;3.30;99.90
35027;DHT22;60696;51.426;6.934;2023-01-31T04:14:02;3.30;99.90
35027;DHT22;60696;51.426;6.934;2023-01-31T04:16:27;3.20;99.90
35027;DHT22;60696;51.426;6.934;2023-01-31T04:18:53;3.10;99.90
35027;DHT22;60696;51.426;6.934;2023-01-31T04:21:21;3.10;99.90
35027;DHT22;60696;51.426;6.934;2023-01-31T04:23:46;3.10;99.90
35027;DHT22;60696;51.426;6.934;2023-01-31T04:26:12;3.10;99.90
35027;DHT22;60696;51.426;6.934;2023-01-31T04:28:38;3.20;99.90
35027;DHT22;60696;51.426;6.934;2023-01-31T04:31:03;3.20;99.90
35027;DHT22;60696;51.426;6.934;2023-01-31T04:33:29;3.20;99.90
35027;DHT22;60696;51.426;6.934;2023-01-31T04:35:55;3.30;99.90
35027;DHT22;60696;51.426;6.934;2023-01-31T04:38:20;3.30;99.90
35027;DHT22;60696;51.426;6.934;2023-01-31T04:40:46;3.30;99.90
35027;DHT22;60696;51.426;6.934;2023-01-31T04:43:12;3.40;99.90
35027;DHT22;60696;51.426;6.934;2023-01-31T04:45:37;3.40;99.90
35027;DHT22;60696;51.426;6.934;2023-01-31T04:48:03;3.40;99.90
35027;DHT22;60696;51.426;6.934;2023-01-31T04:50:29;3.40;99.90
35027;DHT22;60696;51.426;6.934;2023-01-31T04:52:55;3.40;99.90
35027;DHT22;60696;51.426;6.934;2023-01-31T04:55:20;3.40;99.90
35027;DHT22;60696;51.426;6.934;2023-01-31T04:57:46;3.50;99.90
35027;DHT22;60696;51.426;6.934;2023-01-31T05:00:13;3.40;99.90
35027;DHT22;60696;51.426;6.934;2023-01-31T05:02:38;3.50;99.90
35027;DHT22;60696;51.426;6.934;2023-01-31T05:05:05;3.50;99.90
35027;DHT22;60696;51.426;6.934;2023-01-31T05:07:31;3.50;99.90
35027;DHT22;60696;51.426;6.934;2023-01-31T05:09:56;3.50;99.90
35027;DHT22;60696;51.426;6.934;2023-01-31T05:12:22;3.50;99.90
35027;DHT22;60696;51.426;6.934;2023-01-31T05:14:47;3.60;99.90
35027;DHT22;60696;51.426;6.934;2023-01-31T05:17:13;3.50;99.90
35027;DHT22;60696;51.426;6.934;2023-01-31T05:19:39;3.50;99.90
35027;DHT22;60696;51.426;6.934;2023-01-31T05:22:06;3.60;99.90
35027;DHT22;60696;51.426;6.934;2023-01-31T05:24:32;3.60;99.90
35027;DHT22;60696;51.426;6.934;2023-01-31T05:26:59;3.60;99.90
35027;DHT22;60696;51.426;6.934;2023-01-31T05:29:27;3.60;99.90
35027;DHT22;60696;51.426;6.934;2023-01-31T05:31:54;3.60;99.90
35027;DHT22;60696;51.426;6.934;2023-01-31T05:34:20;3.60;99.90
35027;DHT22;60696;51.426;6.934;2023-01-31T05:36:46;3.60;99.90
35027;DHT22;60696;51.426;6.934;2023-01-31T05:39:12;3.60;99.90
35027;DHT22;60696;51.426;6.934;2023-01-31T05:41:38;3.50;99.90
35027;DHT22;60696;51.426;6.934;2023-01-31T05:44:04;3.50;99.90
35027;DHT22;60696;51.426;6.934;2023-01-31T05:46:29;3.50;99.90
35027;DHT22;60696;51.426;6.934;2023-01-31T05:48:55;3.40;99.90
35027;DHT22;60696;51.426;6.934;2023-01-31T05:51:21;3.40;99.90
35027;DHT22;60696;51.426;6.934;2023-01-31T05:53:46;3.40;99.90
35027;DHT22;60696;51.426;6.934;2023-01-31T05:56:13;3.40;99.90
35027;DHT22;60696;51.426;6.934;2023-01-31T05:58:38;3.30;99.90
35027;DHT22;60696;51.426;6.934;2023-01-31T06:01:04;3.30;99.90
35027;DHT22;60696;51.426;6.934;2023-01-31T06:03:30;3.30;99.90
35027;DHT22;60696;51.426;6.934;2023-01-31T06:05:55;3.30;99.90
35027;DHT22;60696;51.426;6.934;2023-01-31T06:08:21;3.30;99.90
35027;DHT22;60696;51.426;6.934;2023-01-31T06:10:46;3.40;99.90
35027;DHT22;60696;51.426;6.934;2023-01-31T06:13:12;3.40;99.90
35027;DHT22;60696;51.426;6.934;2023-01-31T06:15:42;3.40;99.90
35027;DHT22;60696;51.426;6.934;2023-01-31T06:18:08;3.40;99.90
35027;DHT22;60696;51.426;6.934;2023-01-31T06:20:33;3.50;99.90
35027;DHT22;60696;51.426;6.934;2023-01-31T06:22:59;3.50;99.90
35027;DHT22;60696;51.426;6.934;2023-01-31T06:25:26;3.50;99.90
35027;DHT22;60696;51.426;6.934;2023-01-31T06:27:51;3.60;99.90
35027;DHT22;60696;51.426;6.934;2023-01-31T06:30:17;3.60;99.90
35027;DHT22;60696;51.426;6.934;2023-01-31T06:32:42;3.60;99.90
35027;DHT22;60696;51.426;6.934;2023-01-31T06:35:08;3.70;99.90
35027;DHT22;60696;51.426;6.934;2023-01-31T06:37:34;3.60;99.90
35027;DHT22;60696;51.426;6.934;2023-01-31T06:39:59;3.70;99.90
35027;DHT22;60696;51.426;6.934;2023-01-31T06:42:25;3.70;99.90
35027;DHT22;60696;51.426;6.934;2023-01-31T06:44:51;3.70;99.90
35027;DHT22;60696;51.426;6.934;2023-01-31T06:47:16;3.70;99.90
35027;DHT22;60696;51.426;6.934;2023-01-31T06:49:42;3.70;99.90
35027;DHT22;60696;51.426;6.934;2023-01-31T06:52:07;3.80;99.90
35027;DHT22;60696;51.426;6.934;2023-01-31T06:54:33;3.80;99.90
35027;DHT22;60696;51.426;6.934;2023-01-31T06:56:59;3.80;99.90
35027;DHT22;60696;51.426;6.934;2023-01-31T06:59:24;3.80;99.90
35027;DHT22;60696;51.426;6.934;2023-01-31T07:01:50;3.80;99.90
35027;DHT22;60696;51.426;6.934;2023-01-31T07:04:15;3.80;99.90
35027;DHT22;60696;51.426;6.934;2023-01-31T07:06:41;3.80;99.90
35027;DHT22;60696;51.426;6.934;2023-01-31T07:09:06;3.80;99.90
35027;DHT22;60696;51.426;6.934;2023-01-31T07:11:32;3.90;99.90
35027;DHT22;60696;51.426;6.934;2023-01-31T07:13:58;3.90;99.90
35027;DHT22;60696;51.426;6.934;2023-01-31T07:16:23;3.90;99.90
35027;DHT22;60696;51.426;6.934;2023-01-31T07:18:54;4.00;99.90
35027;DHT22;60696;51.426;6.934;2023-01-31T07:21:20;4.00;99.90
35027;DHT22;60696;51.426;6.934;2023-01-31T07:23:46;4.00;99.90
35027;DHT22;60696;51.426;6.934;2023-01-31T07:26:12;4.10;99.90
35027;DHT22;60696;51.426;6.934;2023-01-31T07:28:38;4.20;99.90
35027;DHT22;60696;51.426;6.934;2023-01-31T07:31:04;4.20;99.90
35027;DHT22;60696;51.426;6.934;2023-01-31T07:33:32;4.20;99.90
35027;DHT22;60696;51.426;6.934;2023-01-31T07:35:57;4.20;99.90
35027;DHT22;60696;51.426;6.934;2023-01-31T07:38:23;4.20;99.90
35027;DHT22;60696;51.426;6.934;2023-01-31T07:40:48;4.30;99.90
35027;DHT22;60696;51.426;6.934;2023-01-31T07:43:14;4.30;99.90
35027;DHT22;60696;51.426;6.934;2023-01-31T07:45:40;4.40;99.90
35027;DHT22;60696;51.426;6.934;2023-01-31T07:48:07;4.40;99.90
35027;DHT22;60696;51.426;6.934;2023-01-31T07:50:32;4.40;99.90
35027;DHT22;60696;51.426;6.934;2023-01-31T07:52:58;4.50;99.90
35027;DHT22;60696;51.426;6.934;2023-01-31T07:55:24;4.50;99.90
35027;DHT22;60696;51.426;6.934;2023-01-31T07:57:50;4.50;99.90
35027;DHT22;60696;51.426;6.934;2023-01-31T08:00:16;4.50;99.90
35027;DHT22;60696;51.426;6.934;2023-01-31T08:03:00;4.60;99.90
35027;DHT22;60696;51.426;6.934;2023-01-31T08:05:45;4.70;99.90
35027;DHT22;60696;51.426;6.934;2023-01-31T08:08:11;4.60;99.90
35027;DHT22;60696;51.426;6.934;2023-01-31T08:10:37;4.70;99.90
35027;DHT22;60696;51.426;6.934;2023-01-31T08:13:03;4.60;99.90
35027;DHT22;60696;51.426;6.934;2023-01-31T08:15:31;4.60;99.90
35027;DHT22;60696;51.426;6.934;2023-01-31T08:17:56;4.60;99.90
35027;DHT22;60696;51.426;6.934;2023-01-31T08:20:22;4.60;99.90
35027;DHT22;60696;51.426;6.934;2023-01-31T08:22:48;4.60;99.90
35027;DHT22;60696;51.426;6.934;2023-01-31T08:25:13;4.60;99.90
35027;DHT22;60696;51.426;6.934;2023-01-31T08:27:39;4.70;99.90
35027;DHT22;60696;51.426;6.934;2023-01-31T08:30:05;4.70;99.90
35027;DHT22;60696;51.426;6.934;2023-01-31T08:32:31;4.70;99.90
35027;DHT22;60696;51.426;6.934;2023-01-31T08:34:57;4.70;99.90
35027;DHT22;60696;51.426;6.934;2023-01-31T08:37:22;4.70;99.90
35027;DHT22;60696;51.426;6.934;2023-01-31T08:39:48;4.70;99.90
35027;DHT22;60696;51.426;6.934;2023-01-31T08:42:14;4.70;99.90
35027;DHT22;60696;51.426;6.934;2023-01-31T08:44:39;4.70;99.90
35027;DHT22;60696;51.426;6.934;2023-01-31T08:47:05;4.60;99.90
35027;DHT22;60696;51.426;6.934;2023-01-31T08:49:31;4.60;99.90
35027;DHT22;60696;51.426;6.934;2023-01-31T08:52:00;4.60;99.90
35027;DHT22;60696;51.426;6.934;2023-01-31T08:54:26;4.60;99.90
35027;DHT22;60696;51.426;6.934;2023-01-31T08:56:51;4.60;99.90
35027;DHT22;60696;51.426;6.934;2023-01-31T08:59:17;4.60;99.90
35027;DHT22;60696;51.426;6.934;2023-01-31T09:01:42;4.60;99.90
35027;DHT22;60696;51.426;6.934;2023-01-31T09:04:11;4.60;99.90
35027;DHT22;60696;51.426;6.934;2023-01-31T09:06:36;4.60;99.90
35027;DHT22;60696;51.426;6.934;2023-01-31T09:09:02;4.70;99.90
35027;DHT22;60696;51.426;6.934;2023-01-31T09:13:56;4.70;99.90
35027;DHT22;60696;51.426;6.934;2023-01-31T09:16:22;4.70;99.90
35027;DHT22;60696;51.426;6.934;2023-01-31T09:18:48;4.70;99.90
35027;DHT22;60696;51.426;6.934;2023-01-31T09:21:16;4.70;99.90
35027;DHT22;60696;51.426;6.934;2023-01-31T09:23:43;4.70;99.90
35027;DHT22;60696;51.426;6.934;2023-01-31T09:26:10;4.80;99.90
35027;DHT22;60696;51.426;6.934;2023-01-31T09:28:36;4.90;99.90
35027;DHT22;60696;51.426;6.934;2023-01-31T09:31:10;5.00;99.90
35027;DHT22;60696;51.426;6.934;2023-01-31T09:33:35;5.00;99.90
35027;DHT22;60696;51.426;6.934;2023-01-31T09:36:04;5.00;99.90
35027;DHT22;60696;51.426;6.934;2023-01-31T09:38:31;5.10;99.90
35027;DHT22;60696;51.426;6.934;2023-01-31T09:40:58;5.10;99.90
35027;DHT22;60696;51.426;6.934;2023-01-31T09:43:29;5.10;99.90
35027;DHT22;60696;51.426;6.934;2023-01-31T09:45:59;5.10;99.90
35027;DHT22;60696;51.426;6.934;2023-01-31T09:48:33;5.10;99.90
35027;DHT22;60696;51.426;6.934;2023-01-31T09:51:03;5.10;99.90
35027;DHT22;60696;51.426;6.934;2023-01-31T09:53:32;5.20;99.90
35027;DHT22;60696;51.426;6.934;2023-01-31T10:01:12;5.10;99.90
35027;DHT22;60696;51.426;6.934;2023-01-31T10:08:48;5.10;99.90
35027;DHT22;60696;51.426;6.934;2023-01-31T10:13:57;5.20;99.90
35027;DHT22;60696;51.426;6.934;2023-01-31T10:16:41;5.00;99.90
35027;DHT22;60696;51.426;6.934;2023-01-31T10:19:19;5.00;99.90
35027;DHT22;60696;51.426;6.934;2023-01-31T10:21:52;5.10;99.90
35027;DHT22;60696;51.426;6.934;2023-01-31T10:24:25;5.10;99.90
35027;DHT22;60696;51.426;6.934;2023-01-31T10:27:00;5.20;99.90
35027;DHT22;60696;51.426;6.934;2023-01-31T10:29:46;5.20;99.90
35027;DHT22;60696;51.426;6.934;2023-01-31T10:32:31;5.20;99.90
35027;DHT22;60696;51.426;6.934;2023-01-31T10:35:18;5.20;99.90
35027;DHT22;60696;51.426;6.934;2023-01-31T10:37:52;5.30;99.90
35027;DHT22;60696;51.426;6.934;2023-01-31T10:42:51;5.30;99.90
35027;DHT22;60696;51.426;6.934;2023-01-31T10:45:20;5.40;99.90
35027;DHT22;60696;51.426;6.934;2023-01-31T10:47:56;5.50;99.90
35027;DHT22;60696;51.426;6.934;2023-01-31T10:58:49;5.60;99.90
35027;DHT22;60696;51.426;6.934;2023-01-31T11:01:16;5.60;99.90
35027;DHT22;60696;51.426;6.934;2023-01-31T11:03:49;5.60;99.90
35027;DHT22;60696;51.426;6.934;2023-01-31T11:06:15;5.50;99.90
35027;DHT22;60696;51.426;6.934;2023-01-31T11:08:47;5.60;99.90
35027;DHT22;60696;51.426;6.934;2023-01-31T11:11:19;5.60;99.90
35027;DHT22;60696;51.426;6.934;2023-01-31T11:14:16;5.60;99.90
35027;DHT22;60696;51.426;6.934;2023-01-31T11:16:42;5.60;99.90
35027;DHT22;60696;51.426;6.934;2023-01-31T11:21:52;5.70;99.90
35027;DHT22;60696;51.426;6.934;2023-01-31T11:24:23;5.70;99.90
35027;DHT22;60696;51.426;6.934;2023-01-31T11:26:54;5.80;99.90
35027;DHT22;60696;51.426;6.934;2023-01-31T11:29:26;5.70;99.90
35027;DHT22;60696;51.426;6.934;2023-01-31T11:31:54;5.80;99.90
35027;DHT22;60696;51.426;6.934;2023-01-31T11:34:28;5.80;99.90
35027;DHT22;60696;51.426;6.934;2023-01-31T11:37:12;5.90;99.90
35027;DHT22;60696;51.426;6.934;2023-01-31T11:39:38;5.90;99.90
35027;DHT22;60696;51.426;6.934;2023-01-31T11:42:12;5.90;99.90
35027;DHT22;60696;51.426;6.934;2023-01-31T11:44:59;5.90;99.90
35027;DHT22;60696;51.426;6.934;2023-01-31T11:47:42;5.90;99.90
35027;DHT22;60696;51.426;6.934;2023-01-31T11:50:23;6.00;99.90
35027;DHT22;60696;51.426;6.934;2023-01-31T11:53:03;6.00;99.90
35027;DHT22;60696;51.426;6.934;2023-01-31T11:55:38;6.10;99.90
35027;DHT22;60696;51.426;6.934;2023-01-31T11:58:31;6.10;99.90
35027;DHT22;60696;51.426;6.934;2023-01-31T12:01:04;6.20;99.90
35027;DHT22;60696;51.426;6.934;2023-01-31T12:03:31;6.20;99.90
35027;DHT22;60696;51.426;6.934;2023-01-31T12:08:39;6.20;99.90
35027;DHT22;60696;51.426;6.934;2023-01-31T12:11:26;6.20;99.90
35027;DHT22;60696;51.426;6.934;2023-01-31T12:13:52;6.20;99.90
35027;DHT22;60696;51.426;6.934;2023-01-31T12:16:24;6.30;99.90
35027;DHT22;60696;51.426;6.934;2023-01-31T12:24:11;6.20;99.90
35027;DHT22;60696;51.426;6.934;2023-01-31T12:26:53;6.20;99.90
35027;DHT22;60696;51.426;6.934;2023-01-31T12:33:04;6.20;99.90
35027;DHT22;60696;51.426;6.934;2023-01-31T12:35:43;6.20;99.90
35027;DHT22;60696;51.426;6.934;2023-01-31T12:41:30;6.20;99.90
35027;DHT22;60696;51.426;6.934;2023-01-31T13:03:44;6.30;99.90
35027;DHT22;60696;51.426;6.934;2023-01-31T13:09:22;6.30;99.90
35027;DHT22;60696;51.426;6.934;2023-01-31T13:12:05;6.30;99.90
35027;DHT22;60696;51.426;6.934;2023-01-31T13:14:38;6.30;99.90
35027;DHT22;60696;51.426;6.934;2023-01-31T13:17:08;6.40;99.90
35027;DHT22;60696;51.426;6.934;2023-01-31T13:19:48;6.50;99.90
35027;DHT22;60696;51.426;6.934;2023-01-31T13:24:53;6.40;99.90
35027;DHT22;60696;51.426;6.934;2023-01-31T13:27:38;6.30;99.90
35027;DHT22;60696;51.426;6.934;2023-01-31T13:30:18;6.20;99.90
35027;DHT22;60696;51.426;6.934;2023-01-31T13:32:48;6.20;99.90
35027;DHT22;60696;51.426;6.934;2023-01-31T13:35:24;6.20;99.90
35027;DHT22;60696;51.426;6.934;2023-01-31T13:37:54;6.20;99.90
35027;DHT22;60696;51.426;6.934;2023-01-31T13:40:23;6.20;99.90
35027;DHT22;60696;51.426;6.934;2023-01-31T13:42:50;6.20;99.90
35027;DHT22;60696;51.426;6.934;2023-01-31T13:45:50;6.10;99.90
35027;DHT22;60696;51.426;6.934;2023-01-31T13:48:31;6.10;99.90
35027;DHT22;60696;51.426;6.934;2023-01-31T13:53:49;6.10;99.90
35027;DHT22;60696;51.426;6.934;2023-01-31T13:56:24;6.20;99.90
35027;DHT22;60696;51.426;6.934;2023-01-31T13:58:51;6.20;99.90
35027;DHT22;60696;51.426;6.934;2023-01-31T14:01:24;6.20;99.90
35027;DHT22;60696;51.426;6.934;2023-01-31T14:09:33;6.20;99.90
35027;DHT22;60696;51.426;6.934;2023-01-31T14:22:23;6.20;99.90
35027;DHT22;60696;51.426;6.934;2023-01-31T14:32:48;6.20;99.90
35027;DHT22;60696;51.426;6.934;2023-01-31T14:40:29;6.30;99.90
35027;DHT22;60696;51.426;6.934;2023-01-31T14:45:49;6.30;99.90
35027;DHT22;60696;51.426;6.934;2023-01-31T14:59:33;6.40;99.90
35027;DHT22;60696;51.426;6.934;2023-01-31T15:02:01;6.30;99.90
35027;DHT22;60696;51.426;6.934;2023-01-31T15:04:44;6.30;99.90
35027;DHT22;60696;51.426;6.934;2023-01-31T15:07:18;6.30;99.90
35027;DHT22;60696;51.426;6.934;2023-01-31T15:09:44;6.30;99.90
35027;DHT22;60696;51.426;6.934;2023-01-31T15:15:34;6.40;99.90
35027;DHT22;60696;51.426;6.934;2023-01-31T15:18:15;6.40;99.90
35027;DHT22;60696;51.426;6.934;2023-01-31T15:20:46;6.40;99.90
35027;DHT22;60696;51.426;6.934;2023-01-31T15:23:20;6.40;99.90
35027;DHT22;60696;51.426;6.934;2023-01-31T15:25:47;6.40;99.90
35027;DHT22;60696;51.426;6.934;2023-01-31T15:28:16;6.40;99.90
35027;DHT22;60696;51.426;6.934;2023-01-31T15:30:43;6.50;99.90
35027;DHT22;60696;51.426;6.934;2023-01-31T15:35:54;6.50;99.90
35027;DHT22;60696;51.426;6.934;2023-01-31T15:43:30;6.50;99.90
35027;DHT22;60696;51.426;6.934;2023-01-31T15:45:56;6.50;99.90
35027;DHT22;60696;51.426;6.934;2023-01-31T15:48:22;6.50;99.90
35027;DHT22;60696;51.426;6.934;2023-01-31T15:50:56;6.50;99.90
35027;DHT22;60696;51.426;6.934;2023-01-31T15:53:27;6.60;99.90
35027;DHT22;60696;51.426;6.934;2023-01-31T15:55:56;6.60;99.90
35027;DHT22;60696;51.426;6.934;2023-01-31T15:58:25;6.60;99.90
35027;DHT22;60696;51.426;6.934;2023-01-31T16:00:56;6.60;99.90
35027;DHT22;60696;51.426;6.934;2023-01-31T16:03:48;6.60;99.90
35027;DHT22;60696;51.426;6.934;2023-01-31T16:06:51;6.60;99.90
35027;DHT22;60696;51.426;6.934;2023-01-31T16:09:23;6.70;99.90
35027;DHT22;60696;51.426;6.934;2023-01-31T16:11:50;6.70;99.90
35027;DHT22;60696;51.426;6.934;2023-01-31T16:14:16;6.70;99.90
35027;DHT22;60696;51.426;6.934;2023-01-31T16:16:42;6.70;99.90
35027;DHT22;60696;51.426;6.934;2023-01-31T16:19:23;6.80;99.90
35027;DHT22;60696;51.426;6.934;2023-01-31T16:21:49;6.80;99.90
35027;DHT22;60696;51.426;6.934;2023-01-31T16:24:16;6.80;99.90
35027;DHT22;60696;51.426;6.934;2023-01-31T16:34:41;6.80;99.90
35027;DHT22;60696;51.426;6.934;2023-01-31T16:37:07;6.80;99.90
35027;DHT22;60696;51.426;6.934;2023-01-31T16:39:43;6.70;99.90
35027;DHT22;60696;51.426;6.934;2023-01-31T16:44:42;6.80;99.90
35027;DHT22;60696;51.426;6.934;2023-01-31T16:52:49;6.80;99.90
35027;DHT22;60696;51.426;6.934;2023-01-31T16:55:20;6.90;99.90
35027;DHT22;60696;51.426;6.934;2023-01-31T16:57:46;6.90;99.90
35027;DHT22;60696;51.426;6.934;2023-01-31T17:02:54;7.00;99.90
35027;DHT22;60696;51.426;6.934;2023-01-31T17:05:40;7.00;99.90
35027;DHT22;60696;51.426;6.934;2023-01-31T17:08:15;7.00;99.90
35027;DHT22;60696;51.426;6.934;2023-01-31T17:10:42;6.90;99.90
35027;DHT22;60696;51.426;6.934;2023-01-31T17:13:24;7.00;99.90
35027;DHT22;60696;51.426;6.934;2023-01-31T17:15:50;6.90;99.90
35027;DHT22;60696;51.426;6.934;2023-01-31T17:18:16;7.00;99.90
35027;DHT22;60696;51.426;6.934;2023-01-31T17:20:44;7.00;99.90
35027;DHT22;60696;51.426;6.934;2023-01-31T17:23:11;7.00;99.90
35027;DHT22;60696;51.426;6.934;2023-01-31T17:25:37;7.00;99.90
35027;DHT22;60696;51.426;6.934;2023-01-31T17:28:04;6.90;99.90
35027;DHT22;60696;51.426;6.934;2023-01-31T17:30:30;7.00;99.90
35027;DHT22;60696;51.426;6.934;2023-01-31T17:32:57;7.00;99.90
35027;DHT22;60696;51.426;6.934;2023-01-31T17:35:34;7.00;99.90
35027;DHT22;60696;51.426;6.934;2023-01-31T17:38:00;7.00;99.90
35027;DHT22;60696;51.426;6.934;2023-01-31T17:40:26;7.00;99.90
35027;DHT22;60696;51.426;6.934;2023-01-31T17:42:56;7.00;99.90
35027;DHT22;60696;51.426;6.934;2023-01-31T17:45:22;7.00;99.90
35027;DHT22;60696;51.426;6.934;2023-01-31T17:47:47;7.00;99.90
35027;DHT22;60696;51.426;6.934;2023-01-31T17:50:17;7.00;99.90
35027;DHT22;60696;51.426;6.934;2023-01-31T17:52:43;7.00;99.90
35027;DHT22;60696;51.426;6.934;2023-01-31T17:55:09;7.00;99.90
35027;DHT22;60696;51.426;6.934;2023-01-31T17:57:35;7.00;99.90
35027;DHT22;60696;51.426;6.934;2023-01-31T18:00:01;7.00;99.90
35027;DHT22;60696;51.426;6.934;2023-01-31T18:02:27;7.00;99.90
35027;DHT22;60696;51.426;6.934;2023-01-31T18:04:53;7.00;99.90
35027;DHT22;60696;51.426;6.934;2023-01-31T18:07:18;7.00;99.90
35027;DHT22;60696;51.426;6.934;2023-01-31T18:09:44;7.00;99.90
35027;DHT22;60696;51.426;6.934;2023-01-31T18:12:10;7.00;99.90
35027;DHT22;60696;51.426;6.934;2023-01-31T18:14:35;7.00;99.90
35027;DHT22;60696;51.426;6.934;2023-01-31T18:17:01;7.00;99.90
35027;DHT22;60696;51.426;6.934;2023-01-31T18:19:26;7.00;99.90
35027;DHT22;60696;51.426;6.934;2023-01-31T18:21:52;7.00;99.90
35027;DHT22;60696;51.426;6.934;2023-01-31T18:24:18;7.00;99.90
35027;DHT22;60696;51.426;6.934;2023-01-31T18:26:44;7.00;99.90
35027;DHT22;60696;51.426;6.934;2023-01-31T18:29:09;7.00;99.90
35027;DHT22;60696;51.426;6.934;2023-01-31T18:31:37;6.90;99.90
35027;DHT22;60696;51.426;6.934;2023-01-31T18:34:02;6.80;99.90
35027;DHT22;60696;51.426;6.934;2023-01-31T18:36:28;6.70;99.90
35027;DHT22;60696;51.426;6.934;2023-01-31T18:38:54;6.60;99.90
35027;DHT22;60696;51.426;6.934;2023-01-31T18:41:20;6.50;99.90
35027;DHT22;60696;51.426;6.934;2023-01-31T18:43:47;6.40;99.90
35027;DHT22;60696;51.426;6.934;2023-01-31T18:46:13;6.30;99.90
35027;DHT22;60696;51.426;6.934;2023-01-31T18:48:39;6.30;99.90
35027;DHT22;60696;51.426;6.934;2023-01-31T18:51:11;6.20;99.90
35027;DHT22;60696;51.426;6.934;2023-01-31T18:53:39;6.10;99.90
35027;DHT22;60696;51.426;6.934;2023-01-31T18:56:09;6.10;99.90
35027;DHT22;60696;51.426;6.934;2023-01-31T18:58:36;6.00;99.90